sensor_id;sensor_type;location;lat;lon;timestamp;P1;durP1;ratioP1;P2;durP2;ratioP2
76373;SDS011;65197;50.164;8.012;2023-03-24T00:00:13;9.68;;;7.63;;
76373;SDS011;65197;50.164;8.012;2023-03-24T00:02:41;10.48;;;7.65;;
76373;SDS011;65197;50.164;8.012;2023-03-24T00:05:11;12.68;;;8.13;;
76373;SDS011;65197;50.164;8.012;2023-03-24T00:07:41;12.27;;;7.30;;
76373;SDS011;65197;50.164;8.012;2023-03-24T00:10:08;12.43;;;7.43;;
76373;SDS011;65197;50.164;8.012;2023-03-24T00:12:42;14.27;;;8.05;;
76373;SDS011;65197;50.164;8.012;2023-03-24T00:15:13;14.57;;;8.23;;
76373;SDS011;65197;50.164;8.012;2023-03-24T00:17:41;13.05;;;8.57;;
76373;SDS011;65197;50.164;8.012;2023-03-24T00:20:08;15.88;;;9.20;;
76373;SDS011;65197;50.164;8.012;2023-03-24T00:22:39;15.20;;;9.10;;
76373;SDS011;65197;50.164;8.012;2023-03-24T00:27:39;15.27;;;9.38;;
76373;SDS011;65197;50.164;8.012;2023-03-24T00:30:07;12.80;;;8.63;;
76373;SDS011;65197;50.164;8.012;2023-03-24T00:32:34;17.35;;;9.93;;
76373;SDS011;65197;50.164;8.012;2023-03-24T00:35:02;13.77;;;9.18;;
76373;SDS011;65197;50.164;8.012;2023-03-24T00:37:28;20.05;;;11.25;;
76373;SDS011;65197;50.164;8.012;2023-03-24T00:39:54;18.92;;;10.77;;
76373;SDS011;65197;50.164;8.012;2023-03-24T00:42:19;17.92;;;11.18;;
76373;SDS011;65197;50.164;8.012;2023-03-24T00:44:44;18.48;;;11.30;;
76373;SDS011;65197;50.164;8.012;2023-03-24T00:47:10;17.42;;;10.40;;
76373;SDS011;65197;50.164;8.012;2023-03-24T00:49:35;15.73;;;10.73;;
76373;SDS011;65197;50.164;8.012;2023-03-24T00:52:09;18.27;;;10.82;;
76373;SDS011;65197;50.164;8.012;2023-03-24T00:54:36;19.92;;;11.75;;
76373;SDS011;65197;50.164;8.012;2023-03-24T00:57:03;15.82;;;9.75;;
76373;SDS011;65197;50.164;8.012;2023-03-24T00:59:30;18.73;;;11.10;;
76373;SDS011;65197;50.164;8.012;2023-03-24T01:01:55;17.27;;;9.98;;
76373;SDS011;65197;50.164;8.012;2023-03-24T01:04:21;15.95;;;10.13;;
76373;SDS011;65197;50.164;8.012;2023-03-24T01:06:50;15.82;;;9.63;;
76373;SDS011;65197;50.164;8.012;2023-03-24T01:09:18;15.77;;;9.32;;
76373;SDS011;65197;50.164;8.012;2023-03-24T01:11:45;13.98;;;9.05;;
76373;SDS011;65197;50.164;8.012;2023-03-24T01:14:11;14.23;;;8.85;;
76373;SDS011;65197;50.164;8.012;2023-03-24T01:16:37;13.70;;;8.77;;
76373;SDS011;65197;50.164;8.012;2023-03-24T01:19:04;13.45;;;8.90;;
76373;SDS011;65197;50.164;8.012;2023-03-24T01:21:30;15.73;;;9.50;;
76373;SDS011;65197;50.164;8.012;2023-03-24T01:23:56;15.32;;;8.98;;
76373;SDS011;65197;50.164;8.012;2023-03-24T01:26:21;14.95;;;8.82;;
76373;SDS011;65197;50.164;8.012;2023-03-24T01:28:47;14.00;;;9.38;;
76373;SDS011;65197;50.164;8.012;2023-03-24T01:31:12;13.50;;;8.35;;
76373;SDS011;65197;50.164;8.012;2023-03-24T01:33:38;12.60;;;8.85;;
76373;SDS011;65197;50.164;8.012;2023-03-24T01:36:04;12.23;;;8.77;;
76373;SDS011;65197;50.164;8.012;2023-03-24T01:38:30;14.65;;;8.68;;
76373;SDS011;65197;50.164;8.012;2023-03-24T01:40:56;13.77;;;8.65;;
76373;SDS011;65197;50.164;8.012;2023-03-24T01:43:23;11.68;;;7.78;;
76373;SDS011;65197;50.164;8.012;2023-03-24T01:46:12;12.35;;;8.38;;
76373;SDS011;65197;50.164;8.012;2023-03-24T01:48:52;11.93;;;7.72;;
76373;SDS011;65197;50.164;8.012;2023-03-24T01:51:22;13.70;;;7.78;;
76373;SDS011;65197;50.164;8.012;2023-03-24T01:53:59;12.23;;;8.13;;
76373;SDS011;65197;50.164;8.012;2023-03-24T01:56:30;13.63;;;7.88;;
76373;SDS011;65197;50.164;8.012;2023-03-24T01:58:59;12.00;;;8.05;;
76373;SDS011;65197;50.164;8.012;2023-03-24T02:01:28;11.77;;;7.68;;
76373;SDS011;65197;50.164;8.012;2023-03-24T02:03:58;12.55;;;7.65;;
76373;SDS011;65197;50.164;8.012;2023-03-24T02:06:27;12.45;;;7.70;;
76373;SDS011;65197;50.164;8.012;2023-03-24T02:08:55;11.15;;;7.03;;
76373;SDS011;65197;50.164;8.012;2023-03-24T02:11:23;14.27;;;7.95;;
76373;SDS011;65197;50.164;8.012;2023-03-24T02:13:55;12.50;;;7.70;;
76373;SDS011;65197;50.164;8.012;2023-03-24T02:16:44;16.05;;;8.10;;
76373;SDS011;65197;50.164;8.012;2023-03-24T02:19:28;10.43;;;7.32;;
76373;SDS011;65197;50.164;8.012;2023-03-24T02:40:48;12.13;;;6.45;;
76373;SDS011;65197;50.164;8.012;2023-03-24T02:46:37;11.32;;;7.13;;
76373;SDS011;65197;50.164;8.012;2023-03-24T02:49:29;11.98;;;8.18;;
76373;SDS011;65197;50.164;8.012;2023-03-24T02:52:06;9.63;;;6.47;;
76373;SDS011;65197;50.164;8.012;2023-03-24T02:55:01;11.13;;;7.25;;
76373;SDS011;65197;50.164;8.012;2023-03-24T02:57:35;10.70;;;7.20;;
76373;SDS011;65197;50.164;8.012;2023-03-24T03:00:18;13.13;;;8.77;;
76373;SDS011;65197;50.164;8.012;2023-03-24T03:03:03;11.57;;;8.57;;
76373;SDS011;65197;50.164;8.012;2023-03-24T03:05:34;15.77;;;8.38;;
76373;SDS011;65197;50.164;8.012;2023-03-24T03:08:13;13.32;;;8.15;;
76373;SDS011;65197;50.164;8.012;2023-03-24T03:10:41;13.32;;;8.93;;
76373;SDS011;65197;50.164;8.012;2023-03-24T03:13:12;12.00;;;8.00;;
76373;SDS011;65197;50.164;8.012;2023-03-24T03:15:45;15.75;;;9.35;;
76373;SDS011;65197;50.164;8.012;2023-03-24T03:20:59;15.07;;;9.00;;
76373;SDS011;65197;50.164;8.012;2023-03-24T03:24:12;16.17;;;9.32;;
76373;SDS011;65197;50.164;8.012;2023-03-24T03:26:21;15.20;;;10.07;;
76373;SDS011;65197;50.164;8.012;2023-03-24T03:28:53;12.40;;;8.77;;
76373;SDS011;65197;50.164;8.012;2023-03-24T03:31:25;17.27;;;10.55;;
76373;SDS011;65197;50.164;8.012;2023-03-24T03:37:06;14.27;;;9.18;;
76373;SDS011;65197;50.164;8.012;2023-03-24T03:39:48;15.57;;;9.88;;
76373;SDS011;65197;50.164;8.012;2023-03-24T03:42:19;14.07;;;9.00;;
76373;SDS011;65197;50.164;8.012;2023-03-24T03:44:45;15.18;;;10.50;;
76373;SDS011;65197;50.164;8.012;2023-03-24T03:47:10;14.90;;;9.88;;
76373;SDS011;65197;50.164;8.012;2023-03-24T03:49:36;15.10;;;9.48;;
76373;SDS011;65197;50.164;8.012;2023-03-24T03:52:02;13.40;;;9.30;;
76373;SDS011;65197;50.164;8.012;2023-03-24T03:54:28;13.95;;;9.25;;
76373;SDS011;65197;50.164;8.012;2023-03-24T03:56:55;13.50;;;8.93;;
76373;SDS011;65197;50.164;8.012;2023-03-24T03:59:43;14.80;;;9.73;;
76373;SDS011;65197;50.164;8.012;2023-03-24T04:02:27;14.68;;;9.85;;
76373;SDS011;65197;50.164;8.012;2023-03-24T04:05:18;13.15;;;8.70;;
76373;SDS011;65197;50.164;8.012;2023-03-24T04:08:07;13.10;;;8.85;;
76373;SDS011;65197;50.164;8.012;2023-03-24T04:13:23;15.48;;;9.18;;
76373;SDS011;65197;50.164;8.012;2023-03-24T04:22:00;9.63;;;6.80;;
76373;SDS011;65197;50.164;8.012;2023-03-24T04:32:48;8.25;;;6.35;;
76373;SDS011;65197;50.164;8.012;2023-03-24T04:35:24;7.38;;;5.60;;
76373;SDS011;65197;50.164;8.012;2023-03-24T04:38:09;9.45;;;5.82;;
76373;SDS011;65197;50.164;8.012;2023-03-24T04:40:41;7.45;;;5.00;;
76373;SDS011;65197;50.164;8.012;2023-03-24T04:43:10;7.38;;;4.93;;
76373;SDS011;65197;50.164;8.012;2023-03-24T04:45:38;7.30;;;4.28;;
76373;SDS011;65197;50.164;8.012;2023-03-24T04:48:06;5.88;;;4.43;;
76373;SDS011;65197;50.164;8.012;2023-03-24T04:50:38;5.85;;;4.28;;
76373;SDS011;65197;50.164;8.012;2023-03-24T04:53:05;5.00;;;3.72;;
76373;SDS011;65197;50.164;8.012;2023-03-24T04:55:38;4.32;;;3.55;;
76373;SDS011;65197;50.164;8.012;2023-03-24T04:58:17;4.82;;;3.47;;
76373;SDS011;65197;50.164;8.012;2023-03-24T05:00:43;6.10;;;3.42;;
76373;SDS011;65197;50.164;8.012;2023-03-24T05:03:10;4.35;;;3.00;;
76373;SDS011;65197;50.164;8.012;2023-03-24T05:05:42;5.03;;;2.78;;
76373;SDS011;65197;50.164;8.012;2023-03-24T05:08:09;5.93;;;3.08;;
76373;SDS011;65197;50.164;8.012;2023-03-24T05:10:35;4.68;;;3.00;;
76373;SDS011;65197;50.164;8.012;2023-03-24T05:13:01;4.53;;;3.33;;
76373;SDS011;65197;50.164;8.012;2023-03-24T05:15:27;5.35;;;2.88;;
76373;SDS011;65197;50.164;8.012;2023-03-24T05:17:53;3.58;;;2.60;;
76373;SDS011;65197;50.164;8.012;2023-03-24T05:20:18;3.97;;;2.80;;
76373;SDS011;65197;50.164;8.012;2023-03-24T05:22:44;5.25;;;2.78;;
76373;SDS011;65197;50.164;8.012;2023-03-24T05:25:10;3.80;;;2.58;;
76373;SDS011;65197;50.164;8.012;2023-03-24T05:27:36;4.00;;;2.42;;
76373;SDS011;65197;50.164;8.012;2023-03-24T05:30:01;4.38;;;2.55;;
76373;SDS011;65197;50.164;8.012;2023-03-24T05:32:29;3.60;;;2.40;;
76373;SDS011;65197;50.164;8.012;2023-03-24T05:34:54;5.90;;;2.70;;
76373;SDS011;65197;50.164;8.012;2023-03-24T05:37:20;3.97;;;2.42;;
76373;SDS011;65197;50.164;8.012;2023-03-24T05:39:46;3.53;;;2.67;;
76373;SDS011;65197;50.164;8.012;2023-03-24T05:42:11;5.50;;;2.85;;
76373;SDS011;65197;50.164;8.012;2023-03-24T05:44:36;5.55;;;2.42;;
76373;SDS011;65197;50.164;8.012;2023-03-24T05:47:02;4.30;;;2.42;;
76373;SDS011;65197;50.164;8.012;2023-03-24T05:49:28;4.90;;;2.85;;
76373;SDS011;65197;50.164;8.012;2023-03-24T05:51:53;4.97;;;3.22;;
76373;SDS011;65197;50.164;8.012;2023-03-24T05:54:20;4.38;;;2.97;;
76373;SDS011;65197;50.164;8.012;2023-03-24T05:56:46;4.60;;;3.00;;
76373;SDS011;65197;50.164;8.012;2023-03-24T05:59:11;4.30;;;2.83;;
76373;SDS011;65197;50.164;8.012;2023-03-24T06:01:36;4.35;;;2.65;;
76373;SDS011;65197;50.164;8.012;2023-03-24T06:04:02;3.20;;;2.22;;
76373;SDS011;65197;50.164;8.012;2023-03-24T06:06:27;3.72;;;2.35;;
76373;SDS011;65197;50.164;8.012;2023-03-24T06:08:53;4.32;;;2.47;;
76373;SDS011;65197;50.164;8.012;2023-03-24T06:11:18;4.70;;;2.30;;
76373;SDS011;65197;50.164;8.012;2023-03-24T06:13:44;3.90;;;2.30;;
76373;SDS011;65197;50.164;8.012;2023-03-24T06:16:09;3.00;;;2.10;;
76373;SDS011;65197;50.164;8.012;2023-03-24T06:18:35;4.05;;;2.35;;
76373;SDS011;65197;50.164;8.012;2023-03-24T06:21:00;3.45;;;2.40;;
76373;SDS011;65197;50.164;8.012;2023-03-24T06:23:26;3.35;;;2.17;;
76373;SDS011;65197;50.164;8.012;2023-03-24T06:25:52;3.35;;;2.00;;
76373;SDS011;65197;50.164;8.012;2023-03-24T06:28:19;3.17;;;2.30;;
76373;SDS011;65197;50.164;8.012;2023-03-24T06:30:46;3.22;;;2.05;;
76373;SDS011;65197;50.164;8.012;2023-03-24T06:33:13;4.07;;;2.10;;
76373;SDS011;65197;50.164;8.012;2023-03-24T06:35:38;2.22;;;2.03;;
76373;SDS011;65197;50.164;8.012;2023-03-24T06:38:04;5.13;;;2.38;;
76373;SDS011;65197;50.164;8.012;2023-03-24T06:40:31;2.90;;;2.00;;
76373;SDS011;65197;50.164;8.012;2023-03-24T06:42:57;3.28;;;2.03;;
76373;SDS011;65197;50.164;8.012;2023-03-24T06:45:22;3.00;;;2.10;;
76373;SDS011;65197;50.164;8.012;2023-03-24T06:47:48;2.30;;;1.80;;
76373;SDS011;65197;50.164;8.012;2023-03-24T06:50:19;3.85;;;1.60;;
76373;SDS011;65197;50.164;8.012;2023-03-24T06:52:45;3.20;;;1.70;;
76373;SDS011;65197;50.164;8.012;2023-03-24T06:55:10;2.58;;;1.50;;
76373;SDS011;65197;50.164;8.012;2023-03-24T06:57:36;2.83;;;1.63;;
76373;SDS011;65197;50.164;8.012;2023-03-24T07:00:02;3.03;;;1.95;;
76373;SDS011;65197;50.164;8.012;2023-03-24T07:02:32;2.08;;;1.50;;
76373;SDS011;65197;50.164;8.012;2023-03-24T07:05:00;2.60;;;1.50;;
76373;SDS011;65197;50.164;8.012;2023-03-24T07:07:32;2.15;;;1.38;;
76373;SDS011;65197;50.164;8.012;2023-03-24T07:09:59;2.90;;;1.88;;
76373;SDS011;65197;50.164;8.012;2023-03-24T07:12:24;2.42;;;1.63;;
76373;SDS011;65197;50.164;8.012;2023-03-24T07:14:50;2.03;;;1.55;;
76373;SDS011;65197;50.164;8.012;2023-03-24T07:17:16;3.13;;;1.50;;
76373;SDS011;65197;50.164;8.012;2023-03-24T07:19:41;5.15;;;1.65;;
76373;SDS011;65197;50.164;8.012;2023-03-24T07:22:08;2.60;;;1.60;;
76373;SDS011;65197;50.164;8.012;2023-03-24T07:24:34;3.03;;;1.52;;
76373;SDS011;65197;50.164;8.012;2023-03-24T07:27:00;2.80;;;1.83;;
76373;SDS011;65197;50.164;8.012;2023-03-24T07:29:25;2.38;;;1.60;;
76373;SDS011;65197;50.164;8.012;2023-03-24T07:31:51;2.25;;;1.70;;
76373;SDS011;65197;50.164;8.012;2023-03-24T07:34:18;3.17;;;1.60;;
76373;SDS011;65197;50.164;8.012;2023-03-24T07:36:44;3.15;;;1.60;;
76373;SDS011;65197;50.164;8.012;2023-03-24T07:39:10;4.10;;;1.75;;
76373;SDS011;65197;50.164;8.012;2023-03-24T07:41:37;2.55;;;1.40;;
76373;SDS011;65197;50.164;8.012;2023-03-24T07:44:02;1.58;;;1.25;;
76373;SDS011;65197;50.164;8.012;2023-03-24T07:46:28;2.17;;;1.52;;
76373;SDS011;65197;50.164;8.012;2023-03-24T07:48:53;2.22;;;1.50;;
76373;SDS011;65197;50.164;8.012;2023-03-24T07:51:18;2.83;;;1.52;;
76373;SDS011;65197;50.164;8.012;2023-03-24T07:53:44;2.03;;;1.50;;
76373;SDS011;65197;50.164;8.012;2023-03-24T07:56:11;2.13;;;1.38;;
76373;SDS011;65197;50.164;8.012;2023-03-24T07:58:37;1.98;;;1.40;;
76373;SDS011;65197;50.164;8.012;2023-03-24T08:01:05;2.90;;;1.60;;
76373;SDS011;65197;50.164;8.012;2023-03-24T08:03:31;4.63;;;1.80;;
76373;SDS011;65197;50.164;8.012;2023-03-24T08:05:57;2.50;;;1.60;;
76373;SDS011;65197;50.164;8.012;2023-03-24T08:08:23;2.20;;;1.58;;
76373;SDS011;65197;50.164;8.012;2023-03-24T08:10:49;2.22;;;1.45;;
76373;SDS011;65197;50.164;8.012;2023-03-24T08:13:14;2.40;;;1.52;;
76373;SDS011;65197;50.164;8.012;2023-03-24T08:15:40;3.80;;;1.80;;
76373;SDS011;65197;50.164;8.012;2023-03-24T08:18:06;1.70;;;1.20;;
76373;SDS011;65197;50.164;8.012;2023-03-24T08:20:32;2.08;;;1.50;;
76373;SDS011;65197;50.164;8.012;2023-03-24T08:22:57;2.95;;;1.50;;
76373;SDS011;65197;50.164;8.012;2023-03-24T08:25:25;3.33;;;1.42;;
76373;SDS011;65197;50.164;8.012;2023-03-24T08:27:51;2.95;;;1.60;;
76373;SDS011;65197;50.164;8.012;2023-03-24T08:30:18;2.53;;;1.38;;
76373;SDS011;65197;50.164;8.012;2023-03-24T08:32:50;1.80;;;1.13;;
76373;SDS011;65197;50.164;8.012;2023-03-24T08:35:19;3.63;;;1.50;;
76373;SDS011;65197;50.164;8.012;2023-03-24T08:37:49;2.67;;;1.58;;
76373;SDS011;65197;50.164;8.012;2023-03-24T08:40:16;2.58;;;1.30;;
76373;SDS011;65197;50.164;8.012;2023-03-24T08:42:46;3.28;;;1.70;;
76373;SDS011;65197;50.164;8.012;2023-03-24T08:47:39;5.53;;;2.00;;
76373;SDS011;65197;50.164;8.012;2023-03-24T08:50:06;4.13;;;1.98;;
76373;SDS011;65197;50.164;8.012;2023-03-24T08:52:33;4.45;;;1.92;;
76373;SDS011;65197;50.164;8.012;2023-03-24T08:54:58;5.22;;;1.50;;
76373;SDS011;65197;50.164;8.012;2023-03-24T08:57:25;1.73;;;1.00;;
76373;SDS011;65197;50.164;8.012;2023-03-24T08:59:50;2.22;;;1.10;;
76373;SDS011;65197;50.164;8.012;2023-03-24T09:02:16;2.58;;;1.10;;
76373;SDS011;65197;50.164;8.012;2023-03-24T09:04:41;3.00;;;1.10;;
76373;SDS011;65197;50.164;8.012;2023-03-24T09:07:07;2.85;;;1.10;;
76373;SDS011;65197;50.164;8.012;2023-03-24T09:09:33;3.70;;;1.38;;
76373;SDS011;65197;50.164;8.012;2023-03-24T09:11:59;3.05;;;1.13;;
76373;SDS011;65197;50.164;8.012;2023-03-24T09:14:25;5.18;;;1.30;;
76373;SDS011;65197;50.164;8.012;2023-03-24T09:16:50;2.08;;;1.20;;
76373;SDS011;65197;50.164;8.012;2023-03-24T09:19:16;3.13;;;1.50;;
76373;SDS011;65197;50.164;8.012;2023-03-24T09:21:45;3.50;;;1.23;;
76373;SDS011;65197;50.164;8.012;2023-03-24T09:24:12;2.22;;;1.30;;
76373;SDS011;65197;50.164;8.012;2023-03-24T09:26:38;3.30;;;1.40;;
76373;SDS011;65197;50.164;8.012;2023-03-24T09:29:03;3.33;;;1.38;;
76373;SDS011;65197;50.164;8.012;2023-03-24T09:31:29;3.80;;;1.58;;
76373;SDS011;65197;50.164;8.012;2023-03-24T09:33:54;3.85;;;1.50;;
76373;SDS011;65197;50.164;8.012;2023-03-24T09:36:20;5.40;;;1.98;;
76373;SDS011;65197;50.164;8.012;2023-03-24T09:38:45;3.30;;;1.67;;
76373;SDS011;65197;50.164;8.012;2023-03-24T09:41:27;3.13;;;1.52;;
76373;SDS011;65197;50.164;8.012;2023-03-24T09:43:58;3.80;;;1.80;;
76373;SDS011;65197;50.164;8.012;2023-03-24T09:46:33;3.63;;;1.55;;
76373;SDS011;65197;50.164;8.012;2023-03-24T09:49:02;5.38;;;1.65;;
76373;SDS011;65197;50.164;8.012;2023-03-24T09:51:30;3.53;;;1.58;;
76373;SDS011;65197;50.164;8.012;2023-03-24T09:56:34;4.32;;;1.60;;
76373;SDS011;65197;50.164;8.012;2023-03-24T10:01:50;5.10;;;1.67;;
76373;SDS011;65197;50.164;8.012;2023-03-24T10:04:17;4.80;;;1.38;;
76373;SDS011;65197;50.164;8.012;2023-03-24T10:09:28;5.90;;;1.73;;
76373;SDS011;65197;50.164;8.012;2023-03-24T10:17:28;4.57;;;1.40;;
76373;SDS011;65197;50.164;8.012;2023-03-24T10:31:29;5.25;;;1.33;;
76373;SDS011;65197;50.164;8.012;2023-03-24T10:33:56;3.65;;;1.27;;
76373;SDS011;65197;50.164;8.012;2023-03-24T10:36:23;3.08;;;1.23;;
76373;SDS011;65197;50.164;8.012;2023-03-24T10:38:49;6.15;;;1.45;;
76373;SDS011;65197;50.164;8.012;2023-03-24T10:41:19;5.85;;;1.30;;
76373;SDS011;65197;50.164;8.012;2023-03-24T10:43:46;6.45;;;1.40;;
76373;SDS011;65197;50.164;8.012;2023-03-24T10:46:14;3.83;;;2.08;;
76373;SDS011;65197;50.164;8.012;2023-03-24T10:48:47;5.13;;;1.50;;
76373;SDS011;65197;50.164;8.012;2023-03-24T10:51:18;3.30;;;1.40;;
76373;SDS011;65197;50.164;8.012;2023-03-24T10:53:46;3.45;;;1.48;;
76373;SDS011;65197;50.164;8.012;2023-03-24T10:56:36;2.65;;;1.30;;
76373;SDS011;65197;50.164;8.012;2023-03-24T11:01:46;5.65;;;1.70;;
76373;SDS011;65197;50.164;8.012;2023-03-24T11:04:13;3.40;;;1.38;;
76373;SDS011;65197;50.164;8.012;2023-03-24T11:09:41;4.55;;;1.40;;
76373;SDS011;65197;50.164;8.012;2023-03-24T11:12:19;2.72;;;1.20;;
76373;SDS011;65197;50.164;8.012;2023-03-24T11:14:46;3.80;;;1.20;;
76373;SDS011;65197;50.164;8.012;2023-03-24T11:17:12;4.30;;;1.20;;
76373;SDS011;65197;50.164;8.012;2023-03-24T11:19:48;2.55;;;1.10;;
76373;SDS011;65197;50.164;8.012;2023-03-24T11:22:16;2.15;;;1.00;;
76373;SDS011;65197;50.164;8.012;2023-03-24T11:24:42;3.70;;;1.40;;
76373;SDS011;65197;50.164;8.012;2023-03-24T11:27:08;2.97;;;1.10;;
76373;SDS011;65197;50.164;8.012;2023-03-24T11:29:39;3.30;;;1.27;;
76373;SDS011;65197;50.164;8.012;2023-03-24T11:32:26;3.50;;;1.20;;
76373;SDS011;65197;50.164;8.012;2023-03-24T11:34:57;6.30;;;1.30;;
76373;SDS011;65197;50.164;8.012;2023-03-24T11:37:30;3.50;;;1.67;;
76373;SDS011;65197;50.164;8.012;2023-03-24T11:42:43;2.30;;;1.02;;
76373;SDS011;65197;50.164;8.012;2023-03-24T11:45:33;4.25;;;1.15;;
76373;SDS011;65197;50.164;8.012;2023-03-24T11:50:47;2.22;;;1.10;;
76373;SDS011;65197;50.164;8.012;2023-03-24T11:53:16;2.55;;;0.80;;
76373;SDS011;65197;50.164;8.012;2023-03-24T11:58:30;2.42;;;1.25;;
76373;SDS011;65197;50.164;8.012;2023-03-24T12:06:33;4.25;;;1.50;;
76373;SDS011;65197;50.164;8.012;2023-03-24T12:09:12;3.55;;;1.20;;
76373;SDS011;65197;50.164;8.012;2023-03-24T12:14:48;4.57;;;1.50;;
76373;SDS011;65197;50.164;8.012;2023-03-24T12:17:25;5.80;;;1.77;;
76373;SDS011;65197;50.164;8.012;2023-03-24T12:20:03;2.85;;;1.30;;
76373;SDS011;65197;50.164;8.012;2023-03-24T12:22:46;4.75;;;2.45;;
76373;SDS011;65197;50.164;8.012;2023-03-24T12:36:08;6.20;;;1.35;;
76373;SDS011;65197;50.164;8.012;2023-03-24T12:44:55;4.22;;;1.13;;
76373;SDS011;65197;50.164;8.012;2023-03-24T12:49:17;4.78;;;1.70;;
76373;SDS011;65197;50.164;8.012;2023-03-24T12:57:16;5.05;;;1.55;;
76373;SDS011;65197;50.164;8.012;2023-03-24T12:59:44;3.38;;;1.33;;
76373;SDS011;65197;50.164;8.012;2023-03-24T13:05:07;2.72;;;1.05;;
76373;SDS011;65197;50.164;8.012;2023-03-24T13:07:41;3.00;;;1.35;;
76373;SDS011;65197;50.164;8.012;2023-03-24T13:10:18;5.18;;;2.35;;
76373;SDS011;65197;50.164;8.012;2023-03-24T13:12:52;4.13;;;1.38;;
76373;SDS011;65197;50.164;8.012;2023-03-24T13:15:29;2.95;;;1.10;;
76373;SDS011;65197;50.164;8.012;2023-03-24T13:20:31;3.67;;;1.27;;
76373;SDS011;65197;50.164;8.012;2023-03-24T13:22:58;3.03;;;1.17;;
76373;SDS011;65197;50.164;8.012;2023-03-24T13:25:55;2.83;;;1.13;;
76373;SDS011;65197;50.164;8.012;2023-03-24T13:31:41;5.00;;;1.55;;
76373;SDS011;65197;50.164;8.012;2023-03-24T13:34:19;3.80;;;1.20;;
76373;SDS011;65197;50.164;8.012;2023-03-24T13:36:51;2.00;;;1.40;;
76373;SDS011;65197;50.164;8.012;2023-03-24T13:39:24;5.60;;;1.33;;
76373;SDS011;65197;50.164;8.012;2023-03-24T13:41:52;3.15;;;1.20;;
76373;SDS011;65197;50.164;8.012;2023-03-24T13:44:25;3.67;;;1.13;;
76373;SDS011;65197;50.164;8.012;2023-03-24T13:49:35;3.75;;;1.20;;
76373;SDS011;65197;50.164;8.012;2023-03-24T13:52:03;3.38;;;1.35;;
76373;SDS011;65197;50.164;8.012;2023-03-24T13:54:32;3.92;;;1.45;;
76373;SDS011;65197;50.164;8.012;2023-03-24T13:57:10;3.85;;;1.48;;
76373;SDS011;65197;50.164;8.012;2023-03-24T14:00:03;2.17;;;1.10;;
76373;SDS011;65197;50.164;8.012;2023-03-24T14:05:39;2.40;;;1.10;;
76373;SDS011;65197;50.164;8.012;2023-03-24T14:08:31;3.80;;;1.48;;
76373;SDS011;65197;50.164;8.012;2023-03-24T14:11:04;4.93;;;1.40;;
76373;SDS011;65197;50.164;8.012;2023-03-24T14:13:33;5.30;;;1.10;;
76373;SDS011;65197;50.164;8.012;2023-03-24T14:16:24;4.03;;;1.30;;
76373;SDS011;65197;50.164;8.012;2023-03-24T14:24:14;2.83;;;1.27;;
76373;SDS011;65197;50.164;8.012;2023-03-24T14:26:43;3.60;;;1.55;;
76373;SDS011;65197;50.164;8.012;2023-03-24T14:29:31;2.63;;;1.20;;
76373;SDS011;65197;50.164;8.012;2023-03-24T14:32:14;4.50;;;1.55;;
76373;SDS011;65197;50.164;8.012;2023-03-24T14:34:50;4.70;;;1.50;;
76373;SDS011;65197;50.164;8.012;2023-03-24T14:37:18;4.00;;;1.10;;
76373;SDS011;65197;50.164;8.012;2023-03-24T14:39:46;4.47;;;1.30;;
76373;SDS011;65197;50.164;8.012;2023-03-24T14:42:25;4.10;;;1.30;;
76373;SDS011;65197;50.164;8.012;2023-03-24T14:44:56;2.92;;;1.20;;
76373;SDS011;65197;50.164;8.012;2023-03-24T14:47:24;2.45;;;0.95;;
76373;SDS011;65197;50.164;8.012;2023-03-24T14:50:02;4.50;;;1.40;;
76373;SDS011;65197;50.164;8.012;2023-03-24T14:52:43;3.00;;;1.40;;
76373;SDS011;65197;50.164;8.012;2023-03-24T14:55:14;4.15;;;1.27;;
76373;SDS011;65197;50.164;8.012;2023-03-24T14:58:08;3.78;;;1.30;;
76373;SDS011;65197;50.164;8.012;2023-03-24T15:00:41;3.17;;;1.17;;
76373;SDS011;65197;50.164;8.012;2023-03-24T15:03:16;3.10;;;1.15;;
76373;SDS011;65197;50.164;8.012;2023-03-24T15:06:16;4.60;;;1.73;;
76373;SDS011;65197;50.164;8.012;2023-03-24T15:08:49;4.97;;;1.85;;
76373;SDS011;65197;50.164;8.012;2023-03-24T15:11:19;4.25;;;1.25;;
76373;SDS011;65197;50.164;8.012;2023-03-24T15:13:56;3.53;;;1.23;;
76373;SDS011;65197;50.164;8.012;2023-03-24T15:16:24;3.20;;;1.35;;
76373;SDS011;65197;50.164;8.012;2023-03-24T15:21:25;4.22;;;1.60;;
76373;SDS011;65197;50.164;8.012;2023-03-24T15:23:59;5.47;;;1.60;;
76373;SDS011;65197;50.164;8.012;2023-03-24T15:26:29;6.35;;;1.42;;
76373;SDS011;65197;50.164;8.012;2023-03-24T15:29:04;3.72;;;1.50;;
76373;SDS011;65197;50.164;8.012;2023-03-24T15:31:31;5.15;;;1.50;;
76373;SDS011;65197;50.164;8.012;2023-03-24T15:36:54;3.83;;;1.60;;
76373;SDS011;65197;50.164;8.012;2023-03-24T15:39:27;4.00;;;1.45;;
76373;SDS011;65197;50.164;8.012;2023-03-24T15:41:56;6.60;;;1.67;;
76373;SDS011;65197;50.164;8.012;2023-03-24T15:44:25;4.72;;;1.95;;
76373;SDS011;65197;50.164;8.012;2023-03-24T15:46:55;3.80;;;1.65;;
76373;SDS011;65197;50.164;8.012;2023-03-24T15:49:26;3.72;;;1.50;;
76373;SDS011;65197;50.164;8.012;2023-03-24T15:54:47;5.40;;;1.65;;
76373;SDS011;65197;50.164;8.012;2023-03-24T15:57:22;3.90;;;1.50;;
76373;SDS011;65197;50.164;8.012;2023-03-24T15:59:54;4.65;;;1.55;;
76373;SDS011;65197;50.164;8.012;2023-03-24T16:02:38;4.00;;;1.30;;
76373;SDS011;65197;50.164;8.012;2023-03-24T16:05:43;2.08;;;1.10;;
76373;SDS011;65197;50.164;8.012;2023-03-24T16:07:59;1.83;;;0.73;;
76373;SDS011;65197;50.164;8.012;2023-03-24T16:13:12;2.95;;;0.88;;
76373;SDS011;65197;50.164;8.012;2023-03-24T16:15:45;6.32;;;1.00;;
76373;SDS011;65197;50.164;8.012;2023-03-24T16:18:32;3.13;;;1.38;;
76373;SDS011;65197;50.164;8.012;2023-03-24T16:21:08;3.78;;;1.30;;
76373;SDS011;65197;50.164;8.012;2023-03-24T16:23:37;2.50;;;1.08;;
76373;SDS011;65197;50.164;8.012;2023-03-24T16:26:02;4.97;;;1.10;;
76373;SDS011;65197;50.164;8.012;2023-03-24T16:28:28;3.53;;;1.13;;
76373;SDS011;65197;50.164;8.012;2023-03-24T16:31:00;3.22;;;1.25;;
76373;SDS011;65197;50.164;8.012;2023-03-24T16:33:27;5.70;;;1.20;;
76373;SDS011;65197;50.164;8.012;2023-03-24T16:35:54;4.10;;;1.20;;
76373;SDS011;65197;50.164;8.012;2023-03-24T16:38:19;4.10;;;1.30;;
76373;SDS011;65197;50.164;8.012;2023-03-24T16:40:47;2.88;;;1.00;;
76373;SDS011;65197;50.164;8.012;2023-03-24T16:43:14;1.90;;;1.10;;
76373;SDS011;65197;50.164;8.012;2023-03-24T16:45:40;6.97;;;1.33;;
76373;SDS011;65197;50.164;8.012;2023-03-24T16:48:08;6.22;;;1.17;;
76373;SDS011;65197;50.164;8.012;2023-03-24T16:50:36;2.92;;;1.00;;
76373;SDS011;65197;50.164;8.012;2023-03-24T16:53:04;4.30;;;1.52;;
76373;SDS011;65197;50.164;8.012;2023-03-24T16:55:30;4.78;;;1.48;;
76373;SDS011;65197;50.164;8.012;2023-03-24T16:57:56;3.88;;;0.90;;
76373;SDS011;65197;50.164;8.012;2023-03-24T17:00:22;4.22;;;1.33;;
76373;SDS011;65197;50.164;8.012;2023-03-24T17:02:48;3.33;;;1.00;;
76373;SDS011;65197;50.164;8.012;2023-03-24T17:05:18;4.20;;;1.45;;
76373;SDS011;65197;50.164;8.012;2023-03-24T17:07:47;3.45;;;1.35;;
76373;SDS011;65197;50.164;8.012;2023-03-24T17:10:12;3.80;;;1.13;;
76373;SDS011;65197;50.164;8.012;2023-03-24T17:12:38;5.75;;;1.13;;
76373;SDS011;65197;50.164;8.012;2023-03-24T17:15:05;3.58;;;1.10;;
76373;SDS011;65197;50.164;8.012;2023-03-24T17:17:31;5.78;;;1.05;;
76373;SDS011;65197;50.164;8.012;2023-03-24T17:19:56;3.42;;;1.20;;
76373;SDS011;65197;50.164;8.012;2023-03-24T17:22:22;2.80;;;1.10;;
76373;SDS011;65197;50.164;8.012;2023-03-24T17:24:49;3.03;;;1.25;;
76373;SDS011;65197;50.164;8.012;2023-03-24T17:27:15;2.53;;;1.00;;
76373;SDS011;65197;50.164;8.012;2023-03-24T17:29:43;3.53;;;1.20;;
76373;SDS011;65197;50.164;8.012;2023-03-24T17:32:09;4.50;;;1.20;;